createdAt,value
2018-07-21T00:00:39.247Z,26.70
2018-07-21T00:05:42.630Z,26.70
2018-07-21T00:10:45.851Z,26.70
2018-07-21T00:15:49.047Z,26.70
2018-07-21T00:20:52.270Z,26.60
2018-07-21T00:25:55.695Z,26.60
2018-07-21T00:30:58.909Z,26.60
2018-07-21T00:36:02.116Z,26.60
2018-07-21T00:41:05.319Z,26.50
2018-07-21T00:46:08.530Z,26.50
2018-07-21T00:51:11.742Z,26.50
2018-07-21T00:56:14.943Z,26.50
2018-07-21T01:01:18.136Z,26.50
2018-07-21T01:06:21.350Z,26.40
2018-07-21T01:11:24.583Z,26.40
2018-07-21T01:16:27.791Z,26.40
2018-07-21T01:21:30.997Z,26.40
2018-07-21T01:26:34.198Z,26.30
2018-07-21T01:31:37.407Z,26.30
2018-07-21T01:36:40.611Z,26.30
2018-07-21T01:41:43.819Z,26.30
2018-07-21T01:46:47.022Z,26.20
2018-07-21T01:51:50.226Z,26.20
2018-07-21T01:56:53.414Z,26.20
2018-07-21T02:01:56.598Z,26.20
2018-07-21T02:06:59.802Z,26.10
2018-07-21T02:12:03.015Z,26.10
2018-07-21T02:17:06.203Z,26.10
2018-07-21T02:22:09.395Z,26.10
2018-07-21T02:27:12.579Z,26.00
2018-07-21T02:32:15.766Z,26.00
2018-07-21T02:37:18.956Z,26.00
2018-07-21T02:42:22.142Z,26.00
2018-07-21T02:47:25.327Z,25.90
2018-07-21T02:52:28.583Z,25.90
2018-07-21T02:57:31.773Z,25.90
2018-07-21T03:02:34.951Z,25.90
2018-07-21T03:07:38.167Z,25.90
2018-07-21T03:12:41.433Z,25.80
2018-07-21T03:17:44.635Z,25.80
2018-07-21T03:22:47.935Z,25.80
2018-07-21T03:27:51.126Z,25.80
2018-07-21T03:32:54.327Z,25.80
2018-07-21T03:37:57.546Z,25.80
2018-07-21T03:43:00.746Z,25.80
2018-07-21T03:48:03.947Z,25.70
2018-07-21T03:53:07.219Z,25.70
2018-07-21T03:58:10.429Z,25.70
2018-07-21T04:03:13.619Z,25.60
2018-07-21T04:08:16.814Z,25.60
2018-07-21T04:13:20.023Z,25.60
2018-07-21T04:18:23.218Z,25.60
2018-07-21T04:23:26.414Z,25.60
2018-07-21T04:28:29.603Z,25.50
2018-07-21T04:33:32.798Z,25.50
2018-07-21T04:38:35.998Z,25.50
2018-07-21T04:43:39.195Z,25.40
2018-07-21T04:48:42.395Z,25.50
2018-07-21T04:53:45.600Z,25.40
2018-07-21T04:58:48.795Z,25.40
2018-07-21T05:03:51.991Z,25.40
2018-07-21T05:08:55.187Z,25.40
2018-07-21T05:13:58.395Z,25.40
2018-07-21T05:19:01.675Z,25.40
2018-07-21T05:24:05.279Z,25.30
2018-07-21T05:29:08.463Z,25.30
2018-07-21T05:34:11.651Z,25.30
2018-07-21T05:39:14.942Z,25.30
2018-07-21T05:44:18.023Z,25.30
2018-07-21T05:54:24.179Z,25.30
2018-07-21T05:59:27.373Z,25.30
2018-07-21T06:04:30.556Z,25.30
2018-07-21T06:09:34.588Z,25.30
2018-07-21T06:14:37.823Z,25.30
2018-07-21T06:19:41.007Z,25.30
2018-07-21T06:24:44.209Z,25.30
2018-07-21T06:29:47.418Z,25.30
2018-07-21T06:34:50.609Z,25.30
2018-07-21T06:39:53.787Z,25.40
2018-07-21T06:44:56.971Z,25.40
2018-07-21T06:50:00.163Z,25.40
2018-07-21T06:55:03.363Z,25.40
2018-07-21T07:00:06.577Z,25.40
2018-07-21T07:05:10.095Z,25.40
2018-07-21T07:10:13.311Z,25.40
2018-07-21T07:15:16.531Z,25.40
2018-07-21T07:20:19.731Z,25.40
2018-07-21T07:25:22.930Z,25.40
2018-07-21T07:30:26.126Z,25.40
2018-07-21T07:35:29.323Z,25.40
2018-07-21T07:40:32.523Z,25.50
2018-07-21T07:45:35.765Z,25.50
2018-07-21T07:50:38.960Z,25.50
2018-07-21T07:55:42.155Z,25.50
2018-07-21T08:00:45.355Z,25.50
2018-07-21T08:05:48.547Z,25.60
2018-07-21T08:15:54.715Z,25.60
2018-07-21T08:20:57.902Z,25.60
2018-07-21T08:26:01.119Z,25.60
2018-07-21T08:31:04.315Z,25.70
2018-07-21T08:36:07.992Z,25.70
2018-07-21T08:41:11.199Z,25.70
2018-07-21T08:46:14.395Z,25.80
2018-07-21T08:51:17.587Z,25.80
2018-07-21T08:56:20.787Z,25.90
2018-07-21T09:01:23.982Z,25.90
2018-07-21T09:06:27.179Z,26.00
2018-07-21T09:11:30.391Z,26.00
2018-07-21T09:16:33.584Z,26.10
2018-07-21T09:21:36.814Z,26.20
2018-07-21T09:26:39.951Z,26.20
2018-07-21T09:31:43.155Z,26.20
2018-07-21T09:36:46.339Z,26.30
2018-07-21T09:41:49.547Z,26.30
2018-07-21T09:46:52.731Z,26.40
2018-07-21T09:51:55.927Z,26.40
2018-07-21T09:56:59.114Z,26.40
2018-07-21T10:02:02.300Z,26.40
2018-07-21T10:07:05.754Z,26.50
2018-07-21T10:12:08.950Z,26.50
2018-07-21T10:17:12.220Z,26.60
2018-07-21T10:22:15.454Z,26.60
2018-07-21T10:27:18.598Z,26.60
2018-07-21T10:32:21.783Z,26.60
2018-07-21T10:37:24.971Z,26.80
2018-07-21T10:42:28.267Z,26.80
2018-07-21T10:47:31.472Z,26.80
2018-07-21T10:52:34.655Z,26.90
2018-07-21T10:57:37.842Z,27.00
2018-07-21T11:02:41.049Z,27.10
2018-07-21T11:07:44.227Z,27.10
2018-07-21T11:12:47.431Z,27.20
2018-07-21T11:17:50.632Z,27.30
2018-07-21T11:22:53.815Z,27.40
2018-07-21T11:27:57.006Z,27.50
2018-07-21T11:33:00.195Z,27.60
2018-07-21T11:38:03.751Z,27.70
2018-07-21T11:43:06.963Z,27.80
2018-07-21T11:48:10.158Z,27.90
2018-07-21T11:53:13.347Z,27.90
2018-07-21T11:58:16.530Z,28.00
2018-07-21T12:03:19.714Z,28.00
2018-07-21T12:08:22.899Z,28.10
2018-07-21T12:13:26.152Z,28.10
2018-07-21T12:18:29.307Z,28.10
2018-07-21T12:23:32.511Z,28.10
2018-07-21T12:28:35.704Z,28.10
2018-07-21T12:33:38.930Z,28.10
2018-07-21T12:38:42.095Z,28.10
2018-07-21T12:43:45.334Z,28.20
2018-07-21T12:48:48.535Z,28.20
2018-07-21T12:53:51.743Z,28.10
2018-07-21T12:58:54.935Z,28.10
2018-07-21T13:03:58.278Z,28.10
2018-07-21T13:09:01.479Z,28.10
2018-07-21T13:14:04.691Z,28.10
2018-07-21T13:19:08.219Z,28.00
2018-07-21T13:29:14.352Z,28.00
2018-07-21T13:34:17.539Z,28.00
2018-07-21T13:39:20.719Z,28.00
2018-07-21T13:44:24.025Z,28.00
2018-07-21T13:49:27.184Z,28.00
2018-07-21T13:54:30.367Z,28.00
2018-07-21T13:59:33.547Z,27.90
2018-07-21T14:04:36.734Z,27.90
2018-07-21T14:09:39.920Z,27.90
2018-07-21T14:14:43.147Z,27.90
2018-07-21T14:19:46.348Z,27.90
2018-07-21T14:24:49.546Z,27.90
2018-07-21T14:29:52.866Z,27.90
2018-07-21T14:34:55.948Z,27.90
2018-07-21T14:39:59.150Z,27.90
2018-07-21T14:45:02.423Z,27.80
2018-07-21T14:50:06.098Z,27.80
2018-07-21T14:55:09.317Z,27.80
2018-07-21T15:00:12.498Z,27.90
2018-07-21T15:05:15.691Z,27.80
2018-07-21T15:10:18.887Z,27.90
2018-07-21T15:15:22.618Z,27.80
2018-07-21T15:20:25.807Z,27.80
2018-07-21T15:25:28.995Z,27.80
2018-07-21T15:30:32.327Z,27.80
2018-07-21T15:40:38.479Z,27.80
2018-07-21T15:45:41.663Z,27.80
2018-07-21T15:50:44.871Z,27.80
2018-07-21T15:55:48.058Z,27.80
2018-07-21T16:00:51.247Z,27.80
2018-07-21T16:05:54.431Z,27.90
2018-07-21T16:10:57.631Z,27.80
2018-07-21T16:16:00.850Z,27.80
2018-07-21T16:21:04.051Z,27.80
2018-07-21T16:26:07.234Z,27.80
2018-07-21T16:31:10.442Z,27.80
2018-07-21T16:36:13.655Z,27.80
2018-07-21T16:41:16.832Z,27.70
2018-07-21T16:46:20.055Z,27.70
2018-07-21T16:51:23.218Z,27.70
2018-07-21T16:56:26.411Z,27.70
2018-07-21T17:01:29.614Z,27.70
2018-07-21T17:06:32.803Z,27.70
2018-07-21T17:11:36.044Z,27.70
2018-07-21T17:21:42.268Z,27.60
2018-07-21T17:26:45.469Z,27.60
2018-07-21T17:31:48.675Z,27.60
2018-07-21T17:36:51.883Z,27.60
2018-07-21T17:41:55.088Z,27.60
2018-07-21T17:46:58.299Z,27.60
2018-07-21T17:52:01.507Z,27.60
2018-07-21T17:57:04.710Z,27.50
2018-07-21T18:02:07.962Z,27.50
2018-07-21T18:07:11.195Z,27.50
2018-07-21T18:12:14.416Z,27.50
2018-07-21T18:17:17.603Z,27.40
2018-07-21T18:22:20.798Z,27.40
2018-07-21T18:27:24.047Z,27.40
2018-07-21T18:32:27.246Z,27.40
2018-07-21T18:37:30.438Z,27.30
2018-07-21T18:42:33.751Z,27.30
2018-07-21T18:47:36.955Z,27.30
2018-07-21T18:52:40.155Z,27.20
2018-07-21T18:57:43.334Z,27.20
2018-07-21T19:02:46.533Z,27.20
2018-07-21T19:07:49.739Z,27.20
2018-07-21T19:12:52.950Z,27.20
2018-07-21T19:17:56.139Z,27.20
2018-07-21T19:22:59.331Z,27.10
2018-07-21T19:28:02.519Z,27.10
2018-07-21T19:33:05.719Z,27.00
2018-07-21T19:38:08.934Z,27.10
2018-07-21T19:43:12.145Z,27.00
2018-07-21T19:48:15.335Z,27.00
2018-07-21T19:53:18.531Z,26.90
2018-07-21T19:58:21.816Z,26.90
2018-07-21T20:03:25.135Z,26.90
2018-07-21T20:08:28.353Z,26.90
2018-07-21T20:13:31.541Z,26.80
2018-07-21T20:18:34.737Z,26.80
2018-07-21T20:23:37.934Z,26.70
2018-07-21T20:28:41.132Z,26.70
2018-07-21T20:33:44.330Z,26.70
2018-07-21T20:38:47.527Z,26.60
2018-07-21T20:43:50.729Z,26.60
2018-07-21T20:48:53.932Z,26.60
2018-07-21T20:53:57.119Z,26.50
2018-07-21T20:59:00.336Z,26.50
2018-07-21T21:04:03.546Z,26.40
2018-07-21T21:09:08.615Z,26.40
2018-07-21T21:14:11.827Z,26.40
2018-07-21T21:19:15.015Z,26.40
2018-07-21T21:24:18.206Z,26.30
2018-07-21T21:29:21.395Z,26.30
2018-07-21T21:34:24.587Z,26.20
2018-07-21T21:39:27.771Z,26.20
2018-07-21T21:44:30.960Z,26.20
2018-07-21T21:49:34.151Z,26.20
2018-07-21T21:54:37.385Z,26.10
2018-07-21T21:59:40.524Z,26.10
2018-07-21T22:04:43.746Z,26.10
2018-07-21T22:09:46.895Z,26.00
2018-07-21T22:14:50.116Z,26.00
2018-07-21T22:19:53.323Z,26.00
2018-07-21T22:24:56.523Z,25.90
2018-07-21T22:29:59.723Z,25.90
2018-07-21T22:35:02.919Z,25.90
2018-07-21T22:40:06.146Z,25.90
2018-07-21T22:45:09.343Z,25.80
2018-07-21T22:50:12.538Z,25.80
2018-07-21T22:55:15.730Z,25.80
2018-07-21T23:00:18.935Z,25.80
2018-07-21T23:05:22.134Z,25.80
2018-07-21T23:10:25.335Z,25.70
2018-07-21T23:15:28.538Z,25.70
2018-07-21T23:20:31.726Z,25.70
2018-07-21T23:25:34.911Z,25.60
2018-07-21T23:30:38.098Z,25.60
2018-07-21T23:35:41.286Z,25.60
2018-07-21T23:40:44.471Z,25.60
2018-07-21T23:45:47.802Z,25.60
2018-07-21T23:50:50.938Z,25.50
2018-07-21T23:55:54.135Z,25.50
